createdAt,value
2022-12-15T00:00:47.104Z,98885.81
2022-12-15T00:04:07.721Z,98897.34
2022-12-15T00:07:28.326Z,98896.91
2022-12-15T00:10:49.238Z,98904.78
2022-12-15T00:14:09.792Z,98896.22
2022-12-15T00:17:30.599Z,98912.34
2022-12-15T00:20:51.377Z,98918.28
2022-12-15T00:24:12.224Z,98920.53
2022-12-15T00:27:32.773Z,98924.72
2022-12-15T00:30:56.243Z,98932.47
2022-12-15T00:34:21.173Z,98941.37
2022-12-15T00:37:41.780Z,98924.69
2022-12-15T00:40:43.877Z,98923.88
2022-12-15T00:43:46.455Z,98917.88
2022-12-15T00:46:54.682Z,98935.16
2022-12-15T00:50:15.399Z,98941.28
2022-12-15T00:53:36.076Z,98954.34
2022-12-15T00:56:56.631Z,98946.56
2022-12-15T01:00:17.255Z,98955.34
2022-12-15T01:03:43.073Z,98944.28
2022-12-15T01:07:04.196Z,98944.31
2022-12-15T01:10:25.284Z,98958.16
2022-12-15T01:13:46.133Z,98958.22
2022-12-15T01:17:10.745Z,98954.75
2022-12-15T01:20:15.810Z,98946.84
2022-12-15T01:23:17.892Z,98946.91
2022-12-15T01:26:20.058Z,98941.63
2022-12-15T01:29:22.230Z,98953.72
2022-12-15T01:32:24.389Z,98959.00
2022-12-15T01:35:27.865Z,98949.59
2022-12-15T01:38:30.361Z,98947.88
2022-12-15T01:41:32.491Z,98949.66
2022-12-15T01:44:36.867Z,98949.72
2022-12-15T01:47:38.973Z,98948.84
2022-12-15T01:51:10.704Z,98946.22
2022-12-15T01:54:23.904Z,98943.63
2022-12-15T01:57:31.864Z,98948.75
2022-12-15T02:00:34.720Z,98953.94
2022-12-15T02:03:38.530Z,98946.31
2022-12-15T02:06:40.631Z,98956.81
2022-12-15T02:09:45.331Z,98954.19
2022-12-15T02:13:28.216Z,98963.81
2022-12-15T02:16:48.443Z,98967.47
2022-12-15T02:20:14.906Z,98979.87
2022-12-15T02:23:35.650Z,98978.44
2022-12-15T02:26:56.468Z,98985.59
2022-12-15T02:30:33.223Z,98976.97
2022-12-15T02:33:39.567Z,98985.72
2022-12-15T02:36:47.772Z,98986.72
2022-12-15T02:39:49.986Z,99002.34
2022-12-15T02:42:56.699Z,99000.66
2022-12-15T02:46:07.973Z,99013.50
2022-12-15T02:49:29.929Z,99008.25
2022-12-15T02:52:53.219Z,99010.66
2022-12-15T02:56:06.692Z,99016.19
2022-12-15T02:59:32.417Z,99035.56
2022-12-15T03:02:39.484Z,99023.16
2022-12-15T03:05:41.837Z,99027.22
2022-12-15T03:08:43.903Z,99034.00
2022-12-15T03:11:45.916Z,99031.31
2022-12-15T03:14:47.934Z,99045.03
2022-12-15T03:17:50.024Z,99032.06
2022-12-15T03:20:52.104Z,99045.78
2022-12-15T03:23:54.233Z,99034.53
2022-12-15T03:26:57.027Z,99054.34
2022-12-15T03:29:59.107Z,99049.00
2022-12-15T03:33:01.129Z,99053.09
2022-12-15T03:36:03.312Z,99058.09
2022-12-15T03:39:05.486Z,99054.59
2022-12-15T03:42:07.571Z,99059.69
2022-12-15T03:45:09.763Z,99061.31
2022-12-15T03:48:11.876Z,99064.75
2022-12-15T03:51:13.997Z,99069.81
2022-12-15T03:54:16.163Z,99068.88
2022-12-15T03:57:18.551Z,99067.12
2022-12-15T04:00:21.749Z,99060.19
2022-12-15T04:03:24.022Z,99077.41
2022-12-15T04:06:26.412Z,99085.13
2022-12-15T04:09:28.624Z,99082.44
2022-12-15T04:12:30.646Z,99085.03
2022-12-15T04:15:33.747Z,99080.66
2022-12-15T04:18:36.248Z,99071.97
2022-12-15T04:21:38.409Z,99071.06
2022-12-15T04:24:58.879Z,99065.88
2022-12-15T04:28:19.425Z,99078.06
2022-12-15T04:31:45.137Z,99082.50
2022-12-15T04:35:05.743Z,99073.97
2022-12-15T04:38:26.536Z,99070.59
2022-12-15T04:41:47.956Z,99075.97
2022-12-15T04:45:14.304Z,99081.34
2022-12-15T04:48:39.350Z,99076.41
2022-12-15T04:51:59.919Z,99068.81
2022-12-15T04:55:20.652Z,99063.91
2022-12-15T04:58:41.679Z,99067.62
2022-12-15T05:02:02.381Z,99081.66
2022-12-15T05:05:23.666Z,99087.03
2022-12-15T05:08:44.366Z,99102.69
2022-12-15T05:12:04.845Z,99106.09
2022-12-15T05:15:26.655Z,99090.44
2022-12-15T05:18:47.276Z,99090.25
2022-12-15T05:22:08.014Z,99097.88
2022-12-15T05:25:29.048Z,99115.91
2022-12-15T05:28:49.728Z,99112.28
2022-12-15T05:31:52.390Z,99118.97
2022-12-15T05:34:54.552Z,99122.25
2022-12-15T05:37:56.655Z,99125.53
2022-12-15T05:41:00.211Z,99126.25
2022-12-15T05:44:02.324Z,99136.44
2022-12-15T05:47:05.014Z,99146.00
2022-12-15T05:50:07.986Z,99151.09
2022-12-15T05:53:09.991Z,99150.91
2022-12-15T05:56:15.352Z,99160.38
2022-12-15T05:59:19.367Z,99177.59
2022-12-15T06:02:21.614Z,99169.69
2022-12-15T06:05:23.654Z,99172.25
2022-12-15T06:08:25.972Z,99185.97
2022-12-15T06:11:28.074Z,99191.13
2022-12-15T06:14:31.372Z,99193.72
2022-12-15T06:17:33.512Z,99199.78
2022-12-15T06:20:36.358Z,99205.81
2022-12-15T06:23:39.188Z,99203.22
2022-12-15T06:26:41.232Z,99204.94
2022-12-15T06:29:43.268Z,99208.31
2022-12-15T06:32:45.491Z,99210.81
2022-12-15T06:35:52.031Z,99207.28
2022-12-15T06:38:54.414Z,99209.81
2022-12-15T06:41:56.581Z,99202.91
2022-12-15T06:44:59.679Z,99202.94
2022-12-15T06:48:01.945Z,99202.84
2022-12-15T06:51:09.654Z,99211.50
2022-12-15T06:54:17.994Z,99209.69
2022-12-15T06:57:20.209Z,99212.97
2022-12-15T07:00:22.308Z,99219.72
2022-12-15T07:03:25.143Z,99218.78
2022-12-15T07:06:28.828Z,99223.06
2022-12-15T07:09:30.871Z,99233.09
2022-12-15T07:12:33.064Z,99231.16
2022-12-15T07:15:35.348Z,99249.09
2022-12-15T07:18:37.891Z,99250.34
2022-12-15T07:21:41.342Z,99250.22
2022-12-15T07:24:43.809Z,99255.50
2022-12-15T07:27:46.823Z,99256.94
2022-12-15T07:30:48.888Z,99255.97
2022-12-15T07:33:52.720Z,99265.16
2022-12-15T07:36:55.500Z,99267.59
2022-12-15T07:39:58.003Z,99266.81
2022-12-15T07:43:00.219Z,99273.44
2022-12-15T07:46:04.686Z,99284.37
2022-12-15T07:49:06.838Z,99280.53
2022-12-15T07:52:08.969Z,99291.47
2022-12-15T07:55:10.985Z,99292.00
2022-12-15T07:58:13.008Z,99282.19
2022-12-15T08:01:15.854Z,99281.88
2022-12-15T08:04:18.783Z,99282.34
2022-12-15T08:07:20.793Z,99304.62
2022-12-15T08:10:22.869Z,99303.03
2022-12-15T08:13:52.837Z,99315.66
2022-12-15T08:16:47.142Z,99314.59
2022-12-15T08:19:49.400Z,99326.00
2022-12-15T08:22:52.050Z,99326.94
2022-12-15T08:25:54.079Z,99342.38
2022-12-15T08:28:56.315Z,99347.34
2022-12-15T08:31:58.436Z,99362.75
2022-12-15T08:35:01.927Z,99362.50
2022-12-15T08:38:05.857Z,99367.00
2022-12-15T08:41:23.384Z,99366.06
2022-12-15T08:44:25.562Z,99369.03
2022-12-15T08:47:27.728Z,99376.19
2022-12-15T08:50:29.952Z,99383.81
2022-12-15T08:53:32.407Z,99379.53
2022-12-15T08:56:36.210Z,99395.25
2022-12-15T08:59:38.629Z,99393.13
2022-12-15T09:02:44.459Z,99387.59
2022-12-15T09:05:46.578Z,99389.31
2022-12-15T09:08:54.416Z,99397.66
2022-12-15T09:11:56.657Z,99398.53
2022-12-15T09:14:58.853Z,99403.41
2022-12-15T09:18:00.925Z,99398.31
2022-12-15T09:21:05.856Z,99395.50
2022-12-15T09:24:08.086Z,99390.94
2022-12-15T09:27:10.320Z,99389.81
2022-12-15T09:30:12.755Z,99379.53
2022-12-15T09:33:14.868Z,99382.06
2022-12-15T09:36:17.374Z,99379.94
2022-12-15T09:39:19.626Z,99385.78
2022-12-15T09:42:27.332Z,99393.38
2022-12-15T09:45:38.766Z,99386.22
2022-12-15T09:48:45.500Z,99384.56
2022-12-15T09:52:11.911Z,99393.06
2022-12-15T09:55:29.075Z,99390.34
2022-12-15T09:58:52.286Z,99399.72
2022-12-15T10:02:19.239Z,99404.72
2022-12-15T10:06:14.813Z,99401.28
2022-12-15T10:09:20.825Z,99400.97
2022-12-15T10:12:30.080Z,99405.09
2022-12-15T10:15:45.665Z,99410.94
2022-12-15T10:19:09.389Z,99411.03
2022-12-15T10:22:24.860Z,99416.13
2022-12-15T10:25:31.933Z,99409.81
2022-12-15T10:28:40.211Z,99403.50
2022-12-15T10:31:54.331Z,99411.22
2022-12-15T10:34:56.503Z,99409.28
2022-12-15T10:38:04.461Z,99415.25
2022-12-15T10:41:09.027Z,99417.66
2022-12-15T10:44:36.905Z,99420.13
2022-12-15T10:47:38.952Z,99399.84
2022-12-15T10:50:43.341Z,99380.50
2022-12-15T10:54:09.693Z,99380.94
2022-12-15T10:57:36.114Z,99384.06
2022-12-15T11:00:38.682Z,99397.56
2022-12-15T11:03:41.690Z,99389.75
2022-12-15T11:06:44.130Z,99394.25
2022-12-15T11:09:48.926Z,99379.00
2022-12-15T11:13:01.026Z,99373.38
2022-12-15T11:16:32.079Z,99365.97
2022-12-15T11:19:39.080Z,99357.84
2022-12-15T11:23:03.090Z,99356.53
2022-12-15T11:26:37.357Z,99356.59
2022-12-15T11:29:51.863Z,99357.62
2022-12-15T11:32:58.151Z,99357.47
2022-12-15T11:36:22.055Z,99356.09
2022-12-15T11:39:43.279Z,99361.91
2022-12-15T11:43:21.899Z,99341.50
2022-12-15T11:46:27.992Z,99343.06
2022-12-15T11:49:37.604Z,99350.97
2022-12-15T11:53:11.277Z,99358.91
2022-12-15T11:56:42.831Z,99358.66
2022-12-15T12:00:07.109Z,99365.94
2022-12-15T12:03:43.382Z,99362.16
2022-12-15T12:07:07.819Z,99379.59
2022-12-15T12:10:22.089Z,99380.25
2022-12-15T12:13:34.800Z,99382.78
2022-12-15T12:16:41.210Z,99379.41
2022-12-15T12:19:50.915Z,99384.44
2022-12-15T12:23:27.877Z,99376.59
2022-12-15T12:26:41.267Z,99370.91
2022-12-15T12:29:51.907Z,99368.69
2022-12-15T12:33:02.783Z,99370.19
2022-12-15T12:36:16.340Z,99352.00
2022-12-15T12:39:23.746Z,99357.84
2022-12-15T12:42:43.734Z,99360.34
2022-12-15T12:45:52.540Z,99344.97
2022-12-15T12:49:22.856Z,99333.31
2022-12-15T12:52:38.212Z,99333.19
2022-12-15T12:55:43.674Z,99336.00
2022-12-15T12:58:48.532Z,99345.56
2022-12-15T13:01:50.846Z,99357.97
2022-12-15T13:05:00.648Z,99364.75
2022-12-15T13:08:05.597Z,99360.25
2022-12-15T13:11:54.041Z,99360.50
2022-12-15T13:14:58.020Z,99363.06
2022-12-15T13:18:11.682Z,99355.88
2022-12-15T13:21:42.466Z,99358.50
2022-12-15T13:24:50.451Z,99361.19
2022-12-15T13:27:58.834Z,99359.53
2022-12-15T13:31:19.627Z,99365.34
2022-12-15T13:34:24.912Z,99364.38
2022-12-15T13:37:51.950Z,99360.84
2022-12-15T13:40:54.355Z,99365.06
2022-12-15T13:44:00.567Z,99370.19
2022-12-15T13:47:28.835Z,99352.84
2022-12-15T13:50:44.247Z,99365.09
2022-12-15T13:54:02.338Z,99354.78
2022-12-15T13:57:12.036Z,99352.13
2022-12-15T14:00:19.201Z,99340.31
2022-12-15T14:03:21.739Z,99336.00
2022-12-15T14:06:24.045Z,99330.97
2022-12-15T14:09:31.552Z,99318.28
2022-12-15T14:12:33.798Z,99312.31
2022-12-15T14:15:35.951Z,99299.16
2022-12-15T14:18:39.265Z,99306.06
2022-12-15T14:21:49.340Z,99335.91
2022-12-15T14:24:59.182Z,99379.09
2022-12-15T14:28:01.244Z,99351.91
2022-12-15T14:31:07.366Z,99347.41
2022-12-15T14:34:15.590Z,99348.25
2022-12-15T14:37:20.398Z,99340.47
2022-12-15T14:40:28.651Z,99325.69
2022-12-15T14:43:39.165Z,99324.06
2022-12-15T14:46:46.732Z,99323.25
2022-12-15T14:49:49.451Z,99304.38
2022-12-15T14:53:01.357Z,99297.69
2022-12-15T15:00:32.316Z,99308.59
2022-12-15T15:03:39.521Z,99316.63
2022-12-15T15:06:41.699Z,99319.44
2022-12-15T15:09:46.159Z,99344.63
2022-12-15T15:12:49.616Z,99362.94
2022-12-15T15:15:57.483Z,99369.81
2022-12-15T15:19:02.896Z,99379.31
2022-12-15T15:22:05.487Z,99359.44
2022-12-15T15:25:39.979Z,99340.28
2022-12-15T15:28:44.958Z,99334.31
2022-12-15T15:31:47.223Z,99369.00
2022-12-15T15:34:49.674Z,99343.78
2022-12-15T15:37:53.255Z,99363.06
2022-12-15T15:40:58.086Z,99373.50
2022-12-15T15:44:01.848Z,99364.16
2022-12-15T15:47:04.695Z,99354.56
2022-12-15T15:50:11.771Z,99331.41
2022-12-15T15:53:19.719Z,99330.91
2022-12-15T15:56:21.958Z,99335.53
2022-12-15T15:59:25.141Z,99341.69
2022-12-15T16:06:25.668Z,99347.75
2022-12-15T16:09:27.803Z,99357.31
2022-12-15T16:16:21.572Z,99353.69
2022-12-15T16:19:25.759Z,99371.81
2022-12-15T16:22:27.874Z,99369.22
2022-12-15T16:25:42.717Z,99362.31
2022-12-15T16:28:51.003Z,99370.19
2022-12-15T16:31:53.304Z,99371.81
2022-12-15T16:34:55.297Z,99365.75
2022-12-15T16:37:57.504Z,99371.69
2022-12-15T16:41:06.782Z,99368.22
2022-12-15T16:44:12.977Z,99357.09
2022-12-15T16:47:15.008Z,99345.81
2022-12-15T16:50:23.170Z,99338.84
2022-12-15T16:53:27.961Z,99335.34
2022-12-15T16:56:30.229Z,99331.84
2022-12-15T16:59:34.187Z,99328.34
2022-12-15T17:02:38.609Z,99331.84
2022-12-15T17:05:44.025Z,99344.13
2022-12-15T17:08:59.230Z,99359.81
2022-12-15T17:15:46.896Z,99338.78
2022-12-15T17:18:50.089Z,99336.38
2022-12-15T17:21:53.910Z,99330.91
2022-12-15T17:28:56.786Z,99344.69
2022-12-15T17:31:58.965Z,99342.69
2022-12-15T17:35:01.314Z,99341.00
2022-12-15T17:38:03.593Z,99341.22
2022-12-15T17:41:06.071Z,99342.06
2022-12-15T17:44:33.084Z,99337.81
2022-12-15T17:47:36.343Z,99336.00
2022-12-15T17:50:39.950Z,99329.87
2022-12-15T17:53:47.743Z,99327.41
2022-12-15T18:00:51.896Z,99326.75
2022-12-15T18:03:54.125Z,99343.44
2022-12-15T18:07:01.509Z,99329.69
2022-12-15T18:10:05.955Z,99334.22
2022-12-15T18:13:26.041Z,99334.19
2022-12-15T18:16:29.087Z,99336.72
2022-12-15T18:19:35.145Z,99325.44
2022-12-15T18:22:38.206Z,99332.41
2022-12-15T18:25:45.717Z,99327.19
2022-12-15T18:28:50.275Z,99319.38
2022-12-15T18:31:53.587Z,99327.84
2022-12-15T18:34:57.503Z,99330.47
2022-12-15T18:37:59.976Z,99313.84
2022-12-15T18:41:04.878Z,99295.62
2022-12-15T18:44:17.572Z,99302.91
2022-12-15T18:47:22.911Z,99305.31
2022-12-15T18:50:27.141Z,99292.41
2022-12-15T18:53:36.455Z,99300.13
2022-12-15T18:56:38.989Z,99297.47
2022-12-15T18:59:41.448Z,99280.97
2022-12-15T19:02:44.106Z,99278.56
2022-12-15T19:05:47.625Z,99282.56
2022-12-15T19:08:51.154Z,99274.91
2022-12-15T19:12:12.193Z,99264.25
2022-12-15T19:15:20.474Z,99266.09
2022-12-15T19:18:42.744Z,99279.84
2022-12-15T19:22:04.677Z,99281.59
2022-12-15T19:25:07.767Z,99263.41
2022-12-15T19:28:19.842Z,99268.50
2022-12-15T19:31:23.027Z,99258.00
2022-12-15T19:34:25.672Z,99243.47
2022-12-15T19:37:31.618Z,99246.84
2022-12-15T19:40:36.529Z,99244.25
2022-12-15T19:43:39.964Z,99249.34
2022-12-15T19:46:48.213Z,99240.75
2022-12-15T19:49:50.968Z,99245.03
2022-12-15T19:53:01.843Z,99236.19
2022-12-15T19:56:04.685Z,99235.31
2022-12-15T19:59:18.791Z,99240.38
2022-12-15T20:02:23.617Z,99235.06
2022-12-15T20:05:27.710Z,99223.63
2022-12-15T20:08:36.181Z,99223.59
2022-12-15T20:11:39.446Z,99219.81
2022-12-15T20:14:41.848Z,99218.97
2022-12-15T20:17:46.020Z,99225.81
2022-12-15T20:20:49.628Z,99217.88
2022-12-15T20:23:58.672Z,99219.59
2022-12-15T20:27:01.256Z,99217.81
2022-12-15T20:30:05.230Z,99218.00
2022-12-15T20:33:07.894Z,99215.41
2022-12-15T20:36:19.340Z,99213.63
2022-12-15T20:39:30.154Z,99195.63
2022-12-15T20:42:32.896Z,99188.78
2022-12-15T20:45:35.783Z,99174.12
2022-12-15T20:48:39.108Z,99179.41
2022-12-15T20:51:41.801Z,99176.13
2022-12-15T20:54:44.332Z,99163.94
2022-12-15T20:57:47.895Z,99166.62
2022-12-15T21:00:51.830Z,99157.38
2022-12-15T21:03:57.232Z,99147.91
2022-12-15T21:07:00.838Z,99137.28
2022-12-15T21:10:04.835Z,99134.81
2022-12-15T21:13:17.025Z,99120.31
2022-12-15T21:16:27.303Z,99115.00
2022-12-15T21:19:31.359Z,99116.44
2022-12-15T21:22:34.327Z,99106.94
2022-12-15T21:25:36.550Z,99112.03
2022-12-15T21:28:39.968Z,99111.94
2022-12-15T21:31:44.826Z,99115.34
2022-12-15T21:34:47.395Z,99120.50
2022-12-15T21:37:51.821Z,99124.78
2022-12-15T21:40:59.603Z,99120.44
2022-12-15T21:44:01.890Z,99127.41
2022-12-15T21:47:22.783Z,99129.75
2022-12-15T21:50:25.707Z,99127.03
2022-12-15T21:53:27.816Z,99130.59
2022-12-15T21:56:29.965Z,99131.31
2022-12-15T21:59:33.061Z,99124.34
2022-12-15T22:02:35.987Z,99129.41
2022-12-15T22:05:38.578Z,99128.53
2022-12-15T22:08:41.588Z,99124.03
2022-12-15T22:11:48.472Z,99107.59
2022-12-15T22:14:50.765Z,99104.31
2022-12-15T22:17:53.731Z,99096.50
2022-12-15T22:20:56.356Z,99089.59
2022-12-15T22:23:58.415Z,99086.06
2022-12-15T22:27:00.581Z,99068.97
2022-12-15T22:30:03.173Z,99059.38
2022-12-15T22:33:19.156Z,99043.94
2022-12-15T22:36:22.659Z,99040.63
2022-12-15T22:39:25.281Z,99024.25
2022-12-15T22:42:27.515Z,99016.53
2022-12-15T22:45:29.959Z,99036.31
2022-12-15T22:48:36.989Z,99041.44
2022-12-15T22:51:39.088Z,99026.56
2022-12-15T22:54:44.106Z,99019.00
2022-12-15T22:58:01.406Z,99023.16
2022-12-15T23:01:06.728Z,99030.97
2022-12-15T23:04:08.832Z,99030.97
2022-12-15T23:07:10.908Z,99037.03
2022-12-15T23:10:35.317Z,99035.28
2022-12-15T23:13:37.357Z,99028.50
2022-12-15T23:16:39.971Z,99026.47
2022-12-15T23:19:46.229Z,99002.87
2022-12-15T23:22:48.434Z,99001.13
2022-12-15T23:25:50.473Z,98992.59
2022-12-15T23:28:53.912Z,98994.22
2022-12-15T23:31:58.018Z,99001.06
2022-12-15T23:35:00.863Z,98975.75
2022-12-15T23:38:02.984Z,98972.25
2022-12-15T23:41:05.779Z,98983.31
2022-12-15T23:44:07.867Z,98965.00
2022-12-15T23:47:10.355Z,98935.69
2022-12-15T23:50:12.943Z,98908.91
2022-12-15T23:53:14.909Z,98906.31
2022-12-15T23:56:20.395Z,98926.31
2022-12-15T23:59:22.375Z,98937.72
